Buoy 43563

sailwx.info

Track history (hours):
 
Tides and Currents Weather Stations Pressure Air Temp Water Temp Dewpoint Dewpoint Depression Visibility Wind Speed Wind Dir Waves Ship Positions

Drifting buoy 43563

Last reported at 2015-Jul-13 17:40 UTC. Time now 2015-Aug-04 23:55 UTC.
Position N 26°41' W 080°02'.
Warning: this ship's position is 22 days out of date.

Barometer 1015.9 mb
Water temperature 29.7 ° C

Date/timePositionNaut miles runAvg speedWind from/ knotsBaromVisibWave heightAir tempDewpointWater temp
2015-Jul-13 17:40N 26°41' W 080°02'0 0.0 1015.9 29.7
2015-Jul-13 16:50N 26°41' W 080°02'0 0.1 1016.4 29.8
2015-Jul-13 14:40N 26°41' W 080°02'0 0.0 1016.8 29.4
2015-Jul-13 13:40N 26°41' W 080°02'0 0.1 1016.6 29.6
2015-Jul-13 11:50N 26°41' W 080°02'0 0.1 1016.0 29.2
2015-Jul-13 08:50N 26°41' W 080°02'0 0.2 1015.1 29.2
2015-Jul-13 07:50N 26°41' W 080°02'0 0.0 1015.4 29.5
2015-Jul-12 23:40N 26°40' W 080°02'0 0.0 1015.9 29.6
2015-Jul-12 22:50N 26°40' W 080°02'0 0.0 1015.7 29.8
2015-Jul-12 15:50N 26°40' W 080°02'0 0.1 1018.6 29.9
2015-Jul-12 13:50N 26°40' W 080°02'0 0.0 1019.0 29.7
2015-Jul-12 08:50N 26°40' W 080°02'0 0.0 1018.0 29.6
2015-Jul-11 20:50N 26°40' W 080°02'0 0.2 1019.5 30.0
2015-Jul-11 19:50N 26°40' W 080°02'0 0.0 1020.1 30.2
2015-Jul-11 17:40N 26°40' W 080°02'0 0.0 1020.9 30.0
2015-Jul-11 16:50N 26°40' W 080°02'0 0.1 1021.3 29.8
2015-Jul-11 15:50N 26°40' W 080°02'0 0.2 1021.7 29.7
2015-Jul-11 14:50N 26°40' W 080°02'0 0.1 1021.6 29.6
2015-Jul-11 11:50N 26°40' W 080°02'0 0.0 1020.7 29.5
2015-Jul-11 08:50N 26°40' W 080°02'0 0.1 1019.5 29.6
2015-Jul-11 06:50N 26°41' W 080°02'0 0.2 1019.6 29.6
2015-Jul-11 03:50N 26°40' W 080°01'0 0.1 1021.1 29.6
2015-Jul-10 20:50N 26°40' W 080°02'0 0.2 1020.1 30.1
2015-Jul-10 19:50N 26°40' W 080°02'0 0.1 1020.5 30.0
2015-Jul-10 14:50N 26°40' W 080°02'1 0.3 1022.0 29.6
2015-Jul-10 12:50N 26°40' W 080°01'1 0.1 1021.5 29.5
2015-Jul-10 06:50N 26°40' W 080°02'0 0.0 1020.2 29.6
2015-Jul-10 01:50N 26°40' W 080°02'0 0.1 1020.7 30.0
2015-Jul-09 22:50N 26°40' W 080°02'0 0.0 1019.8 30.1
2015-Jul-09 11:50N 26°40' W 080°02'0 0.1 1021.2 29.6
2015-Jul-09 08:50N 26°40' W 080°02'0 0.0 1020.5 29.7
2015-Jul-09 02:50N 26°40' W 080°02'0 0.0 1021.8 29.7
2015-Jul-08 22:50N 26°40' W 080°02'0 0.0 1020.2 30.0
2015-Jul-08 15:40N 26°40' W 080°02'0 0.0 1022.6 29.6
2015-Jul-08 10:50N 26°40' W 080°02'0 0.1 1021.4 29.5
2015-Jul-08 09:50N 26°40' W 080°02'0 0.2 1021.3 29.6
2015-Jul-08 08:50N 26°40' W 080°02'0 0.0 1021.0 29.6
2015-Jul-08 01:50N 26°40' W 080°02'0 0.1 1021.0 29.6
2015-Jul-07 22:50N 26°40' W 080°02'0 0.0 1020.9 29.6
2015-Jul-07 12:40N 26°40' W 080°02'0 0.0 1022.2 29.5
2015-Jul-07 11:50N 26°40' W 080°02'0 0.1 1021.6 29.5
2015-Jul-07 09:50N 26°40' W 080°02'0 0.2 1020.4 29.5
2015-Jul-07 08:50N 26°40' W 080°02'0 0.1 1019.9 29.4
2015-Jul-07 05:40N 26°40' W 080°02'0 0.0 1020.1 29.5
2015-Jul-07 04:50N 26°40' W 080°02'0 0.0 1019.8 29.6
2015-Jul-07 01:50N 26°40' W 080°02'0 0.1 1021.3 29.6
2015-Jul-06 21:40N 26°40' W 080°02'0 0.4 1021.3 29.6
2015-Jul-06 20:40N 26°40' W 080°02'1 0.8 1020.8 29.9
2015-Jul-06 19:50N 26°40' W 080°02'0 0.1 1021.4 30.1
2015-Jul-06 14:40N 26°40' W 080°02'0 0.0 1022.4 29.4
2015-Jul-06 00:50N 26°39' W 080°02'0 0.0 1020.9 29.6
2015-Jul-05 21:40N 26°40' W 080°02'1 0.8 1020.5 29.6
2015-Jul-05 20:40N 26°40' W 080°01'1 0.2 1020.6 29.6
2015-Jul-05 16:50N 26°40' W 080°02'0 0.0 1022.4 29.5
2015-Jul-05 15:50N 26°40' W 080°02'0 0.1 1022.6 29.2
2015-Jul-05 14:40N 26°40' W 080°02'0 0.0 1022.5 29.2
2015-Jul-05 13:50N 26°40' W 080°02'0 0.2 1022.1 29.2
2015-Jul-05 12:50N 26°40' W 080°02'0 0.2 1021.8 29.2
2015-Jul-05 11:40N 26°40' W 080°02'0 0.2 1021.4 29.2
2015-Jul-05 10:50N 26°40' W 080°02'1 0.1 1020.9 29.2
2015-Jul-04 21:40N 26°39' W 080°01'0 0.0 1019.8 29.4
2015-Jul-04 20:50N 26°39' W 080°01'1 0.2 1019.7 29.4
2015-Jul-04 17:50N 26°40' W 080°02'0 0.1 1021.0 29.2
2015-Jul-04 15:50N 26°39' W 080°02'0 0.0 1021.3 29.0
2015-Jul-04 13:50N 26°39' W 080°02'0 0.0 1020.8 29.0
2015-Jul-04 08:40N 26°40' W 080°02'0 0.0 1018.7 29.6
2015-Jul-04 03:50N 26°39' W 080°02'0 0.1 1020.6 29.4
2015-Jul-03 22:50N 26°39' W 080°02'0 0.1 1018.5 29.6
2015-Jul-03 17:50N 26°39' W 080°02'   1019.9 29.6
Track history (hours):
 
Tides and Currents Weather Stations Pressure Air Temp Water Temp Dewpoint Dewpoint Depression Visibility Wind Speed Wind Dir Waves Ship Positions

Drifting buoy 43563

Last reported at 2015-Jul-13 17:40 UTC. Time now 2015-Aug-04 23:55 UTC.
Position N 26°41' W 080°02'.
Warning: this ship's position is 22 days out of date.

Barometer 1015.9 mb
Water temperature 29.7 ° C

Date/timePositionNaut miles runAvg speedWind from/ knotsBaromVisibWave heightAir tempDewpointWater temp
2015-Jul-13 17:40N 26°41' W 080°02'0 0.0 1015.9 29.7
2015-Jul-13 16:50N 26°41' W 080°02'0 0.1 1016.4 29.8
2015-Jul-13 14:40N 26°41' W 080°02'0 0.0 1016.8 29.4
2015-Jul-13 13:40N 26°41' W 080°02'0 0.1 1016.6 29.6
2015-Jul-13 11:50N 26°41' W 080°02'0 0.1 1016.0 29.2
2015-Jul-13 08:50N 26°41' W 080°02'0 0.2 1015.1 29.2
2015-Jul-13 07:50N 26°41' W 080°02'0 0.0 1015.4 29.5
2015-Jul-12 23:40N 26°40' W 080°02'0 0.0 1015.9 29.6
2015-Jul-12 22:50N 26°40' W 080°02'0 0.0 1015.7 29.8
2015-Jul-12 15:50N 26°40' W 080°02'0 0.1 1018.6 29.9
2015-Jul-12 13:50N 26°40' W 080°02'0 0.0 1019.0 29.7
2015-Jul-12 08:50N 26°40' W 080°02'0 0.0 1018.0 29.6
2015-Jul-11 20:50N 26°40' W 080°02'0 0.2 1019.5 30.0
2015-Jul-11 19:50N 26°40' W 080°02'0 0.0 1020.1 30.2
2015-Jul-11 17:40N 26°40' W 080°02'0 0.0 1020.9 30.0
2015-Jul-11 16:50N 26°40' W 080°02'0 0.1 1021.3 29.8
2015-Jul-11 15:50N 26°40' W 080°02'0 0.2 1021.7 29.7
2015-Jul-11 14:50N 26°40' W 080°02'0 0.1 1021.6 29.6
2015-Jul-11 11:50N 26°40' W 080°02'0 0.0 1020.7 29.5
2015-Jul-11 08:50N 26°40' W 080°02'0 0.1 1019.5 29.6
2015-Jul-11 06:50N 26°41' W 080°02'0 0.2 1019.6 29.6
2015-Jul-11 03:50N 26°40' W 080°01'0 0.1 1021.1 29.6
2015-Jul-10 20:50N 26°40' W 080°02'0 0.2 1020.1 30.1
2015-Jul-10 19:50N 26°40' W 080°02'0 0.1 1020.5 30.0
2015-Jul-10 14:50N 26°40' W 080°02'1 0.3 1022.0 29.6
2015-Jul-10 12:50N 26°40' W 080°01'1 0.1 1021.5 29.5
2015-Jul-10 06:50N 26°40' W 080°02'0 0.0 1020.2 29.6
2015-Jul-10 01:50N 26°40' W 080°02'0 0.1 1020.7 30.0
2015-Jul-09 22:50N 26°40' W 080°02'0 0.0 1019.8 30.1
2015-Jul-09 11:50N 26°40' W 080°02'0 0.1 1021.2 29.6
2015-Jul-09 08:50N 26°40' W 080°02'0 0.0 1020.5 29.7
2015-Jul-09 02:50N 26°40' W 080°02'0 0.0 1021.8 29.7
2015-Jul-08 22:50N 26°40' W 080°02'0 0.0 1020.2 30.0
2015-Jul-08 15:40N 26°40' W 080°02'0 0.0 1022.6 29.6
2015-Jul-08 10:50N 26°40' W 080°02'0 0.1 1021.4 29.5
2015-Jul-08 09:50N 26°40' W 080°02'0 0.2 1021.3 29.6
2015-Jul-08 08:50N 26°40' W 080°02'0 0.0 1021.0 29.6
2015-Jul-08 01:50N 26°40' W 080°02'0 0.1 1021.0 29.6
2015-Jul-07 22:50N 26°40' W 080°02'0 0.0 1020.9 29.6
2015-Jul-07 12:40N 26°40' W 080°02'0 0.0 1022.2 29.5
2015-Jul-07 11:50N 26°40' W 080°02'0 0.1 1021.6 29.5
2015-Jul-07 09:50N 26°40' W 080°02'0 0.2 1020.4 29.5
2015-Jul-07 08:50N 26°40' W 080°02'0 0.1 1019.9 29.4
2015-Jul-07 05:40N 26°40' W 080°02'0 0.0 1020.1 29.5
2015-Jul-07 04:50N 26°40' W 080°02'0 0.0 1019.8 29.6
2015-Jul-07 01:50N 26°40' W 080°02'0 0.1 1021.3 29.6
2015-Jul-06 21:40N 26°40' W 080°02'0 0.4 1021.3 29.6
2015-Jul-06 20:40N 26°40' W 080°02'1 0.8 1020.8 29.9
2015-Jul-06 19:50N 26°40' W 080°02'0 0.1 1021.4 30.1
2015-Jul-06 14:40N 26°40' W 080°02'0 0.0 1022.4 29.4
2015-Jul-06 00:50N 26°39' W 080°02'0 0.0 1020.9 29.6
2015-Jul-05 21:40N 26°40' W 080°02'1 0.8 1020.5 29.6
2015-Jul-05 20:40N 26°40' W 080°01'1 0.2 1020.6 29.6
2015-Jul-05 16:50N 26°40' W 080°02'0 0.0 1022.4 29.5
2015-Jul-05 15:50N 26°40' W 080°02'0 0.1 1022.6 29.2
2015-Jul-05 14:40N 26°40' W 080°02'0 0.0 1022.5 29.2
2015-Jul-05 13:50N 26°40' W 080°02'0 0.2 1022.1 29.2
2015-Jul-05 12:50N 26°40' W 080°02'0 0.2 1021.8 29.2
2015-Jul-05 11:40N 26°40' W 080°02'0 0.2 1021.4 29.2
2015-Jul-05 10:50N 26°40' W 080°02'1 0.1 1020.9 29.2
2015-Jul-04 21:40N 26°39' W 080°01'0 0.0 1019.8 29.4
2015-Jul-04 20:50N 26°39' W 080°01'1 0.2 1019.7 29.4
2015-Jul-04 17:50N 26°40' W 080°02'0 0.1 1021.0 29.2
2015-Jul-04 15:50N 26°39' W 080°02'0 0.0 1021.3 29.0
2015-Jul-04 13:50N 26°39' W 080°02'0 0.0 1020.8 29.0
2015-Jul-04 08:40N 26°40' W 080°02'0 0.0 1018.7 29.6
2015-Jul-04 03:50N 26°39' W 080°02'0 0.1 1020.6 29.4
2015-Jul-03 22:50N 26°39' W 080°02'0 0.1 1018.5 29.6
2015-Jul-03 17:50N 26°39' W 080°02'   1019.9 29.6

Dump ship's entire track history